createdAt,value
2019-01-31T00:00:30.785Z,3.20
2019-01-31T00:03:52.050Z,3.33
2019-01-31T00:06:53.701Z,2.87
2019-01-31T00:09:32.659Z,3.70
2019-01-31T00:12:32.078Z,3.13
2019-01-31T00:15:11.512Z,3.00
2019-01-31T00:18:19.752Z,3.10
2019-01-31T00:21:30.002Z,2.93
2019-01-31T00:24:19.906Z,3.73
2019-01-31T00:27:12.418Z,3.37
2019-01-31T00:30:20.222Z,3.50
2019-01-31T00:33:44.274Z,3.20
2019-01-31T00:36:39.210Z,2.83
2019-01-31T00:39:29.624Z,3.03
2019-01-31T00:42:31.770Z,2.87
2019-01-31T00:45:27.382Z,3.10
2019-01-31T00:48:26.159Z,3.03
2019-01-31T00:51:08.268Z,2.50
2019-01-31T00:54:07.405Z,2.50
2019-01-31T00:56:46.460Z,2.27
2019-01-31T00:59:49.732Z,2.20
2019-01-31T01:03:16.589Z,2.60
2019-01-31T01:06:08.777Z,2.67
2019-01-31T01:09:20.875Z,2.13
2019-01-31T01:12:25.127Z,2.30
2019-01-31T01:15:24.925Z,2.00
2019-01-31T01:18:00.036Z,2.33
2019-01-31T01:20:55.399Z,2.80
2019-01-31T01:23:57.198Z,1.83
2019-01-31T01:27:05.676Z,2.37
2019-01-31T01:29:50.804Z,2.00
2019-01-31T01:32:55.538Z,2.00
2019-01-31T01:35:39.936Z,2.50
2019-01-31T01:38:32.864Z,2.10
2019-01-31T01:41:23.066Z,2.23
2019-01-31T01:44:35.146Z,2.30
2019-01-31T01:47:29.723Z,2.60
2019-01-31T01:50:01.234Z,2.40
2019-01-31T01:53:23.636Z,2.40
2019-01-31T01:56:21.281Z,2.17
2019-01-31T01:59:23.866Z,2.30
2019-01-31T02:02:21.391Z,2.40
2019-01-31T02:05:33.555Z,2.03
2019-01-31T02:08:48.746Z,2.00
2019-01-31T02:11:32.718Z,2.20
2019-01-31T02:14:27.305Z,2.00
2019-01-31T02:17:00.223Z,2.67
2019-01-31T02:20:09.198Z,1.90
2019-01-31T02:22:58.365Z,1.97
2019-01-31T02:25:56.741Z,2.17
2019-01-31T02:28:51.000Z,2.10
2019-01-31T02:32:02.232Z,2.50
2019-01-31T02:35:08.505Z,2.07
2019-01-31T02:38:07.671Z,2.20
2019-01-31T02:41:01.946Z,2.00
2019-01-31T02:43:55.250Z,2.37
2019-01-31T02:46:32.355Z,2.00
2019-01-31T02:49:37.670Z,2.17
2019-01-31T02:52:35.936Z,2.53
2019-01-31T02:55:50.882Z,1.83
2019-01-31T02:59:17.980Z,2.13
2019-01-31T03:01:57.831Z,2.30
2019-01-31T03:05:19.404Z,1.93
2019-01-31T03:08:26.800Z,2.10
2019-01-31T03:11:25.480Z,2.13
2019-01-31T03:14:09.496Z,2.30
2019-01-31T03:16:34.701Z,2.50
2019-01-31T03:19:28.495Z,2.03
2019-01-31T03:22:05.973Z,2.00
2019-01-31T03:25:08.729Z,1.80
2019-01-31T03:28:09.546Z,2.97
2019-01-31T03:31:18.664Z,2.17
2019-01-31T03:34:42.868Z,2.10
2019-01-31T03:37:43.517Z,2.53
2019-01-31T03:41:17.011Z,2.07
2019-01-31T03:44:14.965Z,2.07
2019-01-31T03:47:10.667Z,1.90
2019-01-31T03:50:15.242Z,1.97
2019-01-31T03:53:24.305Z,1.97
2019-01-31T03:56:29.469Z,2.00
2019-01-31T03:59:13.145Z,2.37
2019-01-31T04:02:23.884Z,1.90
2019-01-31T04:05:41.734Z,2.27
2019-01-31T04:08:09.183Z,2.80
2019-01-31T04:10:36.323Z,2.03
2019-01-31T04:13:03.775Z,2.27
2019-01-31T04:15:31.129Z,2.80
2019-01-31T04:17:58.390Z,2.07
2019-01-31T04:20:25.579Z,2.00
2019-01-31T04:22:54.054Z,2.23
2019-01-31T04:25:21.370Z,2.10
2019-01-31T04:27:48.628Z,2.10
2019-01-31T04:30:16.695Z,1.60
2019-01-31T04:32:43.832Z,1.87
2019-01-31T04:35:11.129Z,2.00
2019-01-31T04:37:38.425Z,1.90
2019-01-31T04:40:05.931Z,2.13
2019-01-31T04:42:33.211Z,2.73
2019-01-31T04:45:00.363Z,1.90
2019-01-31T04:47:27.635Z,2.10
2019-01-31T04:49:54.884Z,1.90
2019-01-31T04:52:22.166Z,2.03
2019-01-31T04:54:49.459Z,2.10
2019-01-31T04:57:16.721Z,2.23
2019-01-31T04:59:43.994Z,2.37
2019-01-31T05:02:11.250Z,2.43
2019-01-31T05:04:38.603Z,2.50
2019-01-31T05:07:05.857Z,2.13
2019-01-31T05:09:33.229Z,2.40
2019-01-31T05:12:00.380Z,2.20
2019-01-31T05:14:27.537Z,2.40
2019-01-31T05:16:54.789Z,2.53
2019-01-31T05:19:22.093Z,2.30
2019-01-31T05:21:49.345Z,1.97
2019-01-31T05:24:16.594Z,3.13
2019-01-31T05:26:43.764Z,2.40
2019-01-31T05:29:11.030Z,1.93
2019-01-31T05:31:38.170Z,2.30
2019-01-31T05:34:05.335Z,2.20
2019-01-31T05:36:32.683Z,2.23
2019-01-31T05:38:59.954Z,2.20
2019-01-31T05:41:27.206Z,2.50
2019-01-31T05:43:54.356Z,2.40
2019-01-31T05:46:21.494Z,3.17
2019-01-31T05:48:48.812Z,2.23
2019-01-31T05:51:16.036Z,2.30
2019-01-31T05:53:43.277Z,2.63
2019-01-31T05:56:10.546Z,2.83
2019-01-31T05:58:37.808Z,2.93
2019-01-31T06:01:05.210Z,3.13
2019-01-31T06:03:32.464Z,3.63
2019-01-31T06:05:59.719Z,3.50
2019-01-31T06:08:27.051Z,3.30
2019-01-31T06:10:54.171Z,3.93
2019-01-31T06:13:21.331Z,10.00
2019-01-31T06:15:48.717Z,3.73
2019-01-31T06:18:15.954Z,3.63
2019-01-31T06:20:43.195Z,3.63
2019-01-31T06:23:10.517Z,3.50
2019-01-31T06:25:37.767Z,4.03
2019-01-31T06:28:05.009Z,2.90
2019-01-31T06:30:32.294Z,3.03
2019-01-31T06:32:59.597Z,3.60
2019-01-31T06:35:26.745Z,3.20
2019-01-31T06:37:54.047Z,3.30
2019-01-31T06:40:21.350Z,3.73
2019-01-31T06:42:48.627Z,4.17
2019-01-31T06:45:17.426Z,3.80
2019-01-31T06:47:44.646Z,4.57
2019-01-31T06:50:12.222Z,4.17
2019-01-31T06:52:40.728Z,4.27
2019-01-31T06:55:08.650Z,4.43
2019-01-31T06:57:35.998Z,4.13
2019-01-31T07:00:05.818Z,4.20
2019-01-31T07:02:33.082Z,4.47
2019-01-31T07:05:00.515Z,4.83
2019-01-31T07:07:27.926Z,4.60
2019-01-31T07:09:55.191Z,4.37
2019-01-31T07:12:22.491Z,4.53
2019-01-31T07:14:49.761Z,3.80
2019-01-31T07:17:18.446Z,4.93
2019-01-31T07:19:47.623Z,5.23
2019-01-31T07:22:14.770Z,4.17
2019-01-31T07:24:42.129Z,4.33
2019-01-31T07:27:09.361Z,3.70
2019-01-31T07:29:36.629Z,4.33
2019-01-31T07:32:03.881Z,3.53
2019-01-31T07:34:31.150Z,3.90
2019-01-31T07:36:58.302Z,6.00
2019-01-31T07:39:25.660Z,7.93
2019-01-31T07:41:52.931Z,6.13
2019-01-31T07:44:20.206Z,8.57
2019-01-31T07:46:47.453Z,5.57
2019-01-31T07:49:14.732Z,5.30
2019-01-31T07:51:42.019Z,5.47
2019-01-31T07:54:09.285Z,5.70
2019-01-31T07:56:36.547Z,6.23
2019-01-31T07:59:04.017Z,9.50
2019-01-31T08:01:31.181Z,6.10
2019-01-31T08:04:02.675Z,5.63
2019-01-31T08:06:27.540Z,4.93
2019-01-31T08:08:54.874Z,7.67
2019-01-31T08:11:22.170Z,8.23
2019-01-31T08:13:49.689Z,6.73
2019-01-31T08:16:16.942Z,7.23
2019-01-31T08:18:44.104Z,4.33
2019-01-31T08:21:11.350Z,4.53
2019-01-31T08:23:38.480Z,4.30
2019-01-31T08:26:05.676Z,4.73
2019-01-31T08:28:32.914Z,3.93
2019-01-31T08:31:00.177Z,4.53
2019-01-31T08:33:28.537Z,3.70
2019-01-31T08:35:55.791Z,3.60
2019-01-31T08:38:22.965Z,3.27
2019-01-31T08:40:50.193Z,3.13
2019-01-31T08:43:20.317Z,3.53
2019-01-31T08:45:46.598Z,3.20
2019-01-31T08:48:13.890Z,3.10
2019-01-31T08:50:41.359Z,3.37
2019-01-31T08:53:08.700Z,3.20
2019-01-31T08:55:35.979Z,3.30
2019-01-31T08:58:03.245Z,3.37
2019-01-31T09:00:30.633Z,3.73
2019-01-31T09:02:57.922Z,3.17
2019-01-31T09:05:25.325Z,3.83
2019-01-31T09:07:52.580Z,3.93
2019-01-31T09:10:21.977Z,3.60
2019-01-31T09:12:49.338Z,3.20
2019-01-31T09:15:18.972Z,3.20
2019-01-31T09:17:46.301Z,2.90
2019-01-31T09:20:15.308Z,3.60
2019-01-31T09:22:56.950Z,2.50
2019-01-31T09:26:00.541Z,2.97
2019-01-31T09:29:13.390Z,2.60
2019-01-31T09:32:17.144Z,3.00
2019-01-31T09:35:22.909Z,2.87
2019-01-31T09:38:26.117Z,3.10
2019-01-31T09:41:32.331Z,2.93
2019-01-31T09:44:59.472Z,2.80
2019-01-31T09:48:04.399Z,3.17
2019-01-31T09:51:25.429Z,3.07
2019-01-31T09:54:43.472Z,3.10
2019-01-31T09:57:33.763Z,3.17
2019-01-31T10:00:30.331Z,2.93
2019-01-31T10:03:37.410Z,3.03
2019-01-31T10:06:54.630Z,3.23
2019-01-31T10:09:38.571Z,2.50
2019-01-31T10:12:40.736Z,2.90
2019-01-31T10:16:17.262Z,2.57
2019-01-31T10:19:15.735Z,2.40
2019-01-31T10:22:30.134Z,2.93
2019-01-31T10:25:35.943Z,2.57
2019-01-31T10:28:38.507Z,3.43
2019-01-31T10:31:47.625Z,4.17
2019-01-31T10:34:52.258Z,3.00
2019-01-31T10:37:42.959Z,2.57
2019-01-31T10:40:24.280Z,2.27
2019-01-31T10:43:08.779Z,3.23
2019-01-31T10:46:30.066Z,2.40
2019-01-31T10:49:23.100Z,2.50
2019-01-31T10:52:07.303Z,1.80
2019-01-31T10:55:40.853Z,2.10
2019-01-31T10:58:43.226Z,1.97
2019-01-31T11:01:48.118Z,2.20
2019-01-31T11:04:23.514Z,1.93
2019-01-31T11:07:27.427Z,2.27
2019-01-31T11:10:51.889Z,2.30
2019-01-31T11:14:15.305Z,3.93
2019-01-31T11:17:14.011Z,1.87
2019-01-31T11:20:07.959Z,2.27
2019-01-31T11:23:00.547Z,2.87
2019-01-31T11:26:04.335Z,1.72
2019-01-31T11:29:12.186Z,1.80
2019-01-31T11:32:17.965Z,1.33
2019-01-31T11:35:02.955Z,1.50
2019-01-31T11:37:47.711Z,1.80
2019-01-31T11:41:01.806Z,1.67
2019-01-31T11:44:01.062Z,1.40
2019-01-31T11:46:54.648Z,1.50
2019-01-31T11:50:09.545Z,3.27
2019-01-31T11:53:07.502Z,1.40
2019-01-31T11:55:56.261Z,1.50
2019-01-31T11:58:48.883Z,1.70
2019-01-31T12:01:16.056Z,2.00
2019-01-31T12:03:43.392Z,1.52
2019-01-31T12:06:10.613Z,1.70
2019-01-31T12:08:37.909Z,2.08
2019-01-31T12:11:05.234Z,1.63
2019-01-31T12:13:32.535Z,1.70
2019-01-31T12:15:59.728Z,1.70
2019-01-31T12:18:27.000Z,1.45
2019-01-31T12:20:54.284Z,2.40
2019-01-31T12:23:21.514Z,1.22
2019-01-31T12:25:48.657Z,1.55
2019-01-31T12:28:15.904Z,1.13
2019-01-31T12:30:43.231Z,1.30
2019-01-31T12:33:10.491Z,1.45
2019-01-31T12:35:37.755Z,1.45
2019-01-31T12:38:05.031Z,0.98
2019-01-31T12:40:32.288Z,1.10
2019-01-31T12:42:59.650Z,1.22
2019-01-31T12:45:27.057Z,1.20
2019-01-31T12:47:54.229Z,1.03
2019-01-31T12:50:24.130Z,1.40
2019-01-31T12:52:51.387Z,1.30
2019-01-31T12:55:18.645Z,1.30
2019-01-31T12:57:45.936Z,1.70
2019-01-31T13:00:21.167Z,1.62
2019-01-31T13:02:48.538Z,1.07
2019-01-31T13:05:15.932Z,1.87
2019-01-31T13:07:43.630Z,1.32
2019-01-31T13:10:10.943Z,1.02
2019-01-31T13:12:48.335Z,1.80
2019-01-31T13:15:07.902Z,1.27
2019-01-31T13:17:35.182Z,1.37
2019-01-31T13:20:05.183Z,1.30
2019-01-31T13:22:32.520Z,1.17
2019-01-31T13:24:59.822Z,1.35
2019-01-31T13:27:27.170Z,0.90
2019-01-31T13:29:54.389Z,0.80
2019-01-31T13:32:21.631Z,0.70
2019-01-31T13:34:48.786Z,0.80
2019-01-31T13:37:16.110Z,0.97
2019-01-31T13:39:43.467Z,0.83
2019-01-31T13:42:10.730Z,1.10
2019-01-31T13:44:38.237Z,1.00
2019-01-31T13:47:05.466Z,0.93
2019-01-31T13:49:32.734Z,1.00
2019-01-31T13:51:59.866Z,1.17
2019-01-31T13:54:27.113Z,4.87
2019-01-31T13:56:54.253Z,1.37
2019-01-31T13:59:21.400Z,1.90
2019-01-31T14:01:48.789Z,1.60
2019-01-31T14:04:17.937Z,1.43
2019-01-31T14:06:45.086Z,1.10
2019-01-31T14:09:12.335Z,1.53
2019-01-31T14:11:39.636Z,1.40
2019-01-31T14:14:09.331Z,1.20
2019-01-31T14:16:46.725Z,2.20
2019-01-31T14:19:05.325Z,1.50
2019-01-31T14:21:32.580Z,2.33
2019-01-31T14:23:59.771Z,2.00
2019-01-31T14:26:27.035Z,1.90
2019-01-31T14:28:54.445Z,1.90
2019-01-31T14:31:22.183Z,1.53
2019-01-31T14:33:49.546Z,1.70
2019-01-31T14:36:16.810Z,1.60
2019-01-31T14:38:43.932Z,1.50
2019-01-31T14:41:11.247Z,1.77
2019-01-31T14:43:38.560Z,1.90
2019-01-31T14:46:05.860Z,1.80
2019-01-31T14:48:33.199Z,2.03
2019-01-31T14:51:00.451Z,1.70
2019-01-31T14:53:27.698Z,2.17
2019-01-31T14:55:55.576Z,1.67
2019-01-31T14:58:23.022Z,1.80
2019-01-31T15:00:50.210Z,1.80
2019-01-31T15:03:17.438Z,2.00
2019-01-31T15:05:44.725Z,1.77
2019-01-31T15:08:11.990Z,1.90
2019-01-31T15:10:39.185Z,1.80
2019-01-31T15:13:06.507Z,2.07
2019-01-31T15:15:33.771Z,1.60
2019-01-31T15:18:01.046Z,1.67
2019-01-31T15:20:37.917Z,1.77
2019-01-31T15:23:04.176Z,2.00
2019-01-31T15:25:31.335Z,1.93
2019-01-31T15:28:00.290Z,1.93
2019-01-31T15:30:29.761Z,2.23
2019-01-31T15:32:58.007Z,1.80
2019-01-31T15:35:25.163Z,1.97
2019-01-31T15:37:52.467Z,2.40
2019-01-31T15:40:22.462Z,2.67
2019-01-31T15:42:49.852Z,2.40
2019-01-31T15:45:17.184Z,5.70
2019-01-31T15:47:44.587Z,3.87
2019-01-31T15:50:13.062Z,3.33
2019-01-31T15:52:40.321Z,4.23
2019-01-31T15:55:10.381Z,4.70
2019-01-31T15:57:37.642Z,5.00
2019-01-31T16:00:39.343Z,4.87
2019-01-31T16:03:08.008Z,4.70
2019-01-31T16:05:35.257Z,5.07
2019-01-31T16:08:02.918Z,5.73
2019-01-31T16:10:30.180Z,5.73
2019-01-31T16:12:57.471Z,5.37
2019-01-31T16:15:24.991Z,4.33
2019-01-31T16:17:52.658Z,4.73
2019-01-31T16:20:20.242Z,3.80
2019-01-31T16:22:47.623Z,7.00
2019-01-31T16:25:14.901Z,6.30
2019-01-31T16:27:42.153Z,3.33
2019-01-31T16:30:11.186Z,3.00
2019-01-31T16:32:38.413Z,4.10
2019-01-31T16:35:07.772Z,4.00
2019-01-31T16:37:35.150Z,3.93
2019-01-31T16:40:02.453Z,4.50
2019-01-31T16:42:29.613Z,4.07
2019-01-31T16:45:06.413Z,3.70
2019-01-31T16:47:26.147Z,3.93
2019-01-31T16:49:53.418Z,4.43
2019-01-31T16:52:20.709Z,5.10
2019-01-31T16:54:48.028Z,5.13
2019-01-31T16:57:15.319Z,4.50
2019-01-31T16:59:42.561Z,4.70
2019-01-31T17:02:09.944Z,4.03
2019-01-31T17:04:37.251Z,4.80
2019-01-31T17:07:06.321Z,4.40
2019-01-31T17:09:33.714Z,5.30
2019-01-31T17:12:01.154Z,5.40
2019-01-31T17:14:28.407Z,6.20
2019-01-31T17:16:55.682Z,4.93
2019-01-31T17:19:23.192Z,6.97
2019-01-31T17:21:50.521Z,8.37
2019-01-31T17:24:17.801Z,6.23
2019-01-31T17:26:45.003Z,5.00
2019-01-31T17:29:12.405Z,4.60
2019-01-31T17:31:39.821Z,5.77
2019-01-31T17:34:07.007Z,6.00
2019-01-31T17:36:34.326Z,4.60
2019-01-31T17:39:01.706Z,5.60
2019-01-31T17:41:29.084Z,6.37
2019-01-31T17:44:15.816Z,5.63
2019-01-31T17:46:43.084Z,6.30
2019-01-31T17:49:10.378Z,5.40
2019-01-31T17:51:37.646Z,5.80
2019-01-31T17:54:05.040Z,5.37
2019-01-31T17:56:32.266Z,5.67
2019-01-31T17:58:59.522Z,5.57
2019-01-31T18:01:26.849Z,5.93
2019-01-31T18:03:54.195Z,5.33
2019-01-31T18:06:21.560Z,5.30
2019-01-31T18:08:48.806Z,5.97
2019-01-31T18:11:16.258Z,5.27
2019-01-31T18:13:43.766Z,4.57
2019-01-31T18:16:10.962Z,5.13
2019-01-31T18:18:38.202Z,5.13
2019-01-31T18:21:05.420Z,5.77
2019-01-31T18:23:32.755Z,4.93
2019-01-31T18:26:00.265Z,4.80
2019-01-31T18:28:27.778Z,5.70
2019-01-31T18:30:55.380Z,4.67
2019-01-31T18:33:23.257Z,4.90
2019-01-31T18:35:50.493Z,5.57
2019-01-31T18:38:17.712Z,4.90
2019-01-31T18:40:44.989Z,5.23
2019-01-31T18:43:12.146Z,5.53
2019-01-31T18:45:39.457Z,5.40
2019-01-31T18:48:06.753Z,5.77
2019-01-31T18:50:36.294Z,5.20
2019-01-31T18:53:03.782Z,6.30
2019-01-31T18:55:31.068Z,6.23
2019-01-31T18:57:58.491Z,6.60
2019-01-31T19:00:34.455Z,6.23
2019-01-31T19:03:01.809Z,6.20
2019-01-31T19:05:29.768Z,5.97
2019-01-31T19:07:57.435Z,6.23
2019-01-31T19:10:24.916Z,6.00
2019-01-31T19:12:52.183Z,6.00
2019-01-31T19:15:19.463Z,5.83
2019-01-31T19:17:46.857Z,5.50
2019-01-31T19:20:19.475Z,5.40
2019-01-31T19:22:46.878Z,5.50
2019-01-31T19:27:41.165Z,5.60
2019-01-31T19:30:16.435Z,6.37
2019-01-31T19:32:43.723Z,6.10
2019-01-31T19:35:11.013Z,7.63
2019-01-31T19:37:38.329Z,7.93
2019-01-31T19:40:06.149Z,8.57
2019-01-31T19:42:33.524Z,8.03
2019-01-31T19:45:00.783Z,8.93
2019-01-31T19:47:28.038Z,7.83
2019-01-31T19:49:55.330Z,7.23
2019-01-31T19:52:22.742Z,7.23
2019-01-31T19:54:50.021Z,7.00
2019-01-31T19:57:17.287Z,6.50
2019-01-31T19:59:44.858Z,5.67
2019-01-31T20:02:12.262Z,6.60
2019-01-31T20:04:39.484Z,6.10
2019-01-31T20:07:07.058Z,6.07
2019-01-31T20:09:34.748Z,6.47
2019-01-31T20:12:02.152Z,6.93
2019-01-31T20:14:29.816Z,7.73
2019-01-31T20:16:57.265Z,7.57
2019-01-31T20:19:24.626Z,6.33
2019-01-31T20:21:52.184Z,5.93
2019-01-31T20:24:19.517Z,5.97
2019-01-31T20:26:46.888Z,5.60
2019-01-31T20:29:14.387Z,5.50
2019-01-31T20:31:41.717Z,4.73
2019-01-31T20:34:09.063Z,5.33
2019-01-31T20:36:36.570Z,5.23
2019-01-31T20:39:07.808Z,5.03
2019-01-31T20:41:35.136Z,5.70
2019-01-31T20:44:02.712Z,4.63
2019-01-31T20:46:39.682Z,4.63
2019-01-31T20:48:59.201Z,4.73
2019-01-31T20:51:26.581Z,4.93
2019-01-31T20:53:53.961Z,4.30
2019-01-31T20:56:21.288Z,4.77
2019-01-31T20:58:48.584Z,4.80
2019-01-31T21:01:16.061Z,4.70
2019-01-31T21:03:43.363Z,5.13
2019-01-31T21:06:10.674Z,5.10
2019-01-31T21:08:37.981Z,4.43
2019-01-31T21:11:07.485Z,5.07
2019-01-31T21:13:34.475Z,5.13
2019-01-31T21:16:01.744Z,5.23
2019-01-31T21:18:29.057Z,5.37
2019-01-31T21:20:56.336Z,5.30
2019-01-31T21:23:23.605Z,5.27
2019-01-31T21:25:50.899Z,5.63
2019-01-31T21:28:18.214Z,6.00
2019-01-31T21:30:45.507Z,5.47
2019-01-31T21:33:12.865Z,5.43
2019-01-31T21:35:40.196Z,5.43
2019-01-31T21:38:07.453Z,5.47
2019-01-31T21:40:36.028Z,5.10
2019-01-31T21:43:04.312Z,5.70
2019-01-31T21:45:31.590Z,5.00
2019-01-31T21:47:59.138Z,4.70
2019-01-31T21:50:26.952Z,5.13
2019-01-31T21:52:54.252Z,4.67
2019-01-31T21:55:21.484Z,4.80
2019-01-31T21:57:48.816Z,5.17
2019-01-31T22:00:21.174Z,5.27
2019-01-31T22:02:48.576Z,4.50
2019-01-31T22:05:16.141Z,5.03
2019-01-31T22:07:43.482Z,4.67
2019-01-31T22:10:11.616Z,4.57
2019-01-31T22:12:38.880Z,5.00
2019-01-31T22:15:10.959Z,4.30
2019-01-31T22:17:38.223Z,4.60
2019-01-31T22:20:05.760Z,4.50
2019-01-31T22:22:32.914Z,5.20
2019-01-31T22:25:00.325Z,4.80
2019-01-31T22:27:27.643Z,4.50
2019-01-31T22:29:54.911Z,6.83
2019-01-31T22:32:22.203Z,7.13
2019-01-31T22:34:49.438Z,6.50
2019-01-31T22:37:16.703Z,5.30
2019-01-31T22:39:43.860Z,4.77
2019-01-31T22:42:11.103Z,4.80
2019-01-31T22:44:38.446Z,5.00
2019-01-31T22:47:05.738Z,4.60
2019-01-31T22:49:32.925Z,4.63
2019-01-31T22:52:00.301Z,4.50
2019-01-31T22:54:27.581Z,4.40
2019-01-31T22:56:54.932Z,4.57
2019-01-31T22:59:22.339Z,4.43
2019-01-31T23:01:52.560Z,4.27
2019-01-31T23:06:51.711Z,5.40
2019-01-31T23:09:18.961Z,6.03
2019-01-31T23:11:46.251Z,4.73
2019-01-31T23:14:13.487Z,4.17
2019-01-31T23:16:40.840Z,5.13
2019-01-31T23:19:08.035Z,5.73
2019-01-31T23:21:35.295Z,5.27
2019-01-31T23:24:03.134Z,5.20
2019-01-31T23:26:30.438Z,4.60
2019-01-31T23:28:57.695Z,5.60
2019-01-31T23:31:24.979Z,4.87
2019-01-31T23:33:52.147Z,4.27
2019-01-31T23:36:19.452Z,4.73
2019-01-31T23:38:46.755Z,4.63
2019-01-31T23:41:13.990Z,4.40
2019-01-31T23:43:41.285Z,3.97
2019-01-31T23:46:08.556Z,4.13
2019-01-31T23:48:35.798Z,3.80
2019-01-31T23:51:03.173Z,4.40
2019-01-31T23:53:30.450Z,4.43
2019-01-31T23:55:57.693Z,4.17
2019-01-31T23:58:24.978Z,3.63
